sensor_id;sensor_type;location;lat;lon;timestamp;pressure;altitude;pressure_sealevel;temperature;humidity
48424;BME280;34232;42.502;26.014;2023-02-18T00:02:17;100779.84;;;7.00;59.19
48424;BME280;34232;42.502;26.014;2023-02-18T00:04:42;100781.19;;;7.08;58.89
48424;BME280;34232;42.502;26.014;2023-02-18T00:07:07;100775.91;;;6.93;58.82
48424;BME280;34232;42.502;26.014;2023-02-18T00:09:32;100777.97;;;7.02;58.73
48424;BME280;34232;42.502;26.014;2023-02-18T00:11:58;100769.97;;;7.06;58.27
48424;BME280;34232;42.502;26.014;2023-02-18T00:14:23;100768.22;;;6.90;58.56
48424;BME280;34232;42.502;26.014;2023-02-18T00:16:48;100767.03;;;6.80;58.26
48424;BME280;34232;42.502;26.014;2023-02-18T00:19:15;100772.06;;;6.67;59.26
48424;BME280;34232;42.502;26.014;2023-02-18T00:21:40;100773.44;;;6.59;60.04
48424;BME280;34232;42.502;26.014;2023-02-18T00:24:05;100779.34;;;6.47;60.10
48424;BME280;34232;42.502;26.014;2023-02-18T00:26:31;100772.25;;;6.49;59.41
48424;BME280;34232;42.502;26.014;2023-02-18T00:28:57;100774.75;;;6.35;58.70
48424;BME280;34232;42.502;26.014;2023-02-18T00:31:23;100764.03;;;6.23;60.67
48424;BME280;34232;42.502;26.014;2023-02-18T00:33:49;100756.38;;;5.86;58.11
48424;BME280;34232;42.502;26.014;2023-02-18T00:36:15;100775.91;;;5.79;59.19
48424;BME280;34232;42.502;26.014;2023-02-18T00:38:44;100768.53;;;5.70;60.61
48424;BME280;34232;42.502;26.014;2023-02-18T00:41:10;100760.53;;;5.73;62.35
48424;BME280;34232;42.502;26.014;2023-02-18T00:43:35;100762.09;;;5.77;61.51
48424;BME280;34232;42.502;26.014;2023-02-18T00:46:00;100755.84;;;5.79;62.28
48424;BME280;34232;42.502;26.014;2023-02-18T00:48:26;100759.09;;;5.84;62.04
48424;BME280;34232;42.502;26.014;2023-02-18T00:50:51;100749.31;;;5.88;63.06
48424;BME280;34232;42.502;26.014;2023-02-18T00:53:16;100743.97;;;5.91;62.31
48424;BME280;34232;42.502;26.014;2023-02-18T00:55:43;100753.34;;;5.95;60.97
48424;BME280;34232;42.502;26.014;2023-02-18T00:58:09;100741.03;;;5.97;60.35
48424;BME280;34232;42.502;26.014;2023-02-18T01:00:34;100758.47;;;5.96;57.62
48424;BME280;34232;42.502;26.014;2023-02-18T01:02:59;100750.78;;;5.93;57.20
48424;BME280;34232;42.502;26.014;2023-02-18T01:05:25;100758.06;;;5.87;56.26
48424;BME280;34232;42.502;26.014;2023-02-18T01:07:50;100744.16;;;5.86;54.12
48424;BME280;34232;42.502;26.014;2023-02-18T01:10:15;100746.25;;;5.80;52.97
48424;BME280;34232;42.502;26.014;2023-02-18T01:12:41;100753.34;;;5.60;53.55
48424;BME280;34232;42.502;26.014;2023-02-18T01:15:06;100745.66;;;5.57;53.76
48424;BME280;34232;42.502;26.014;2023-02-18T01:17:31;100730.91;;;5.56;55.32
48424;BME280;34232;42.502;26.014;2023-02-18T01:19:57;100730.31;;;5.51;54.89
48424;BME280;34232;42.502;26.014;2023-02-18T01:22:22;100732.44;;;5.43;55.15
48424;BME280;34232;42.502;26.014;2023-02-18T01:24:47;100732.22;;;5.31;55.31
48424;BME280;34232;42.502;26.014;2023-02-18T01:27:13;100736.75;;;5.27;55.58
48424;BME280;34232;42.502;26.014;2023-02-18T01:29:38;100726.59;;;5.21;56.63
48424;BME280;34232;42.502;26.014;2023-02-18T01:32:03;100714.16;;;5.09;56.86
48424;BME280;34232;42.502;26.014;2023-02-18T01:34:28;100712.00;;;5.00;57.48
48424;BME280;34232;42.502;26.014;2023-02-18T01:36:54;100711.47;;;4.93;58.01
48424;BME280;34232;42.502;26.014;2023-02-18T01:39:19;100703.56;;;4.95;58.33
48424;BME280;34232;42.502;26.014;2023-02-18T01:41:44;100701.09;;;4.91;58.75
48424;BME280;34232;42.502;26.014;2023-02-18T01:44:14;100697.09;;;4.84;59.36
48424;BME280;34232;42.502;26.014;2023-02-18T01:46:40;100686.97;;;4.78;57.68
48424;BME280;34232;42.502;26.014;2023-02-18T01:49:05;100693.47;;;4.70;58.78
48424;BME280;34232;42.502;26.014;2023-02-18T01:51:33;100691.63;;;4.72;59.54
48424;BME280;34232;42.502;26.014;2023-02-18T01:54:12;100685.41;;;4.74;60.03
48424;BME280;34232;42.502;26.014;2023-02-18T01:59:13;100679.81;;;4.65;60.98
48424;BME280;34232;42.502;26.014;2023-02-18T02:01:41;100680.34;;;4.71;60.56
48424;BME280;34232;42.502;26.014;2023-02-18T02:04:07;100679.06;;;4.80;60.09
48424;BME280;34232;42.502;26.014;2023-02-18T02:06:33;100682.31;;;4.85;58.07
48424;BME280;34232;42.502;26.014;2023-02-18T02:08:58;100677.94;;;4.85;56.37
48424;BME280;34232;42.502;26.014;2023-02-18T02:11:38;100678.84;;;4.84;55.74
48424;BME280;34232;42.502;26.014;2023-02-18T02:16:52;100687.25;;;4.72;56.37
48424;BME280;34232;42.502;26.014;2023-02-18T02:47:34;100690.69;;;4.37;58.73
48424;BME280;34232;42.502;26.014;2023-02-18T02:52:31;100690.53;;;4.40;59.73
48424;BME280;34232;42.502;26.014;2023-02-18T02:54:56;100685.19;;;4.43;59.90
48424;BME280;34232;42.502;26.014;2023-02-18T02:59:51;100675.41;;;4.29;59.90
48424;BME280;34232;42.502;26.014;2023-02-18T03:04:58;100679.28;;;4.20;59.63
48424;BME280;34232;42.502;26.014;2023-02-18T03:07:40;100683.88;;;4.15;59.43
48424;BME280;34232;42.502;26.014;2023-02-18T03:10:16;100675.34;;;4.12;60.20
48424;BME280;34232;42.502;26.014;2023-02-18T03:22:45;100686.88;;;4.25;62.42
48424;BME280;34232;42.502;26.014;2023-02-18T03:25:12;100694.94;;;4.20;56.97
48424;BME280;34232;42.502;26.014;2023-02-18T03:30:10;100698.13;;;3.88;57.93
48424;BME280;34232;42.502;26.014;2023-02-18T03:32:37;100707.13;;;3.81;58.46
48424;BME280;34232;42.502;26.014;2023-02-18T03:35:09;100701.97;;;3.79;57.75
48424;BME280;34232;42.502;26.014;2023-02-18T03:37:37;100703.75;;;3.79;58.09
48424;BME280;34232;42.502;26.014;2023-02-18T03:40:03;100709.25;;;3.73;58.03
48424;BME280;34232;42.502;26.014;2023-02-18T03:42:30;100699.84;;;3.69;57.67
48424;BME280;34232;42.502;26.014;2023-02-18T03:44:55;100698.28;;;3.65;58.56
48424;BME280;34232;42.502;26.014;2023-02-18T03:47:20;100700.00;;;3.66;58.61
48424;BME280;34232;42.502;26.014;2023-02-18T03:49:46;100698.47;;;3.60;58.84
48424;BME280;34232;42.502;26.014;2023-02-18T03:52:11;100699.34;;;3.61;59.19
48424;BME280;34232;42.502;26.014;2023-02-18T03:54:36;100685.41;;;3.62;59.25
48424;BME280;34232;42.502;26.014;2023-02-18T03:57:01;100692.66;;;3.55;60.12
48424;BME280;34232;42.502;26.014;2023-02-18T03:59:27;100692.59;;;3.57;60.73
48424;BME280;34232;42.502;26.014;2023-02-18T04:01:52;100686.31;;;3.61;60.60
48424;BME280;34232;42.502;26.014;2023-02-18T04:04:17;100687.38;;;3.57;60.83
48424;BME280;34232;42.502;26.014;2023-02-18T04:06:43;100689.03;;;3.58;61.34
48424;BME280;34232;42.502;26.014;2023-02-18T04:09:08;100697.78;;;3.57;61.55
48424;BME280;34232;42.502;26.014;2023-02-18T04:11:35;100699.19;;;3.64;60.35
48424;BME280;34232;42.502;26.014;2023-02-18T04:14:00;100690.22;;;3.71;60.09
48424;BME280;34232;42.502;26.014;2023-02-18T04:16:25;100696.00;;;3.77;60.06
48424;BME280;34232;42.502;26.014;2023-02-18T04:18:50;100685.44;;;3.80;59.50
48424;BME280;34232;42.502;26.014;2023-02-18T04:21:16;100687.00;;;3.84;59.16
48424;BME280;34232;42.502;26.014;2023-02-18T04:23:43;100696.44;;;3.87;58.86
48424;BME280;34232;42.502;26.014;2023-02-18T04:26:09;100689.56;;;3.86;59.23
48424;BME280;34232;42.502;26.014;2023-02-18T04:28:34;100680.88;;;3.85;58.72
48424;BME280;34232;42.502;26.014;2023-02-18T04:30:59;100689.94;;;3.77;59.67
48424;BME280;34232;42.502;26.014;2023-02-18T04:33:25;100676.44;;;3.69;60.12
48424;BME280;34232;42.502;26.014;2023-02-18T04:35:50;100687.13;;;3.81;60.24
48424;BME280;34232;42.502;26.014;2023-02-18T04:38:15;100686.16;;;3.84;59.89
48424;BME280;34232;42.502;26.014;2023-02-18T04:40:40;100677.00;;;3.94;59.93
48424;BME280;34232;42.502;26.014;2023-02-18T04:43:06;100674.00;;;3.84;60.43
48424;BME280;34232;42.502;26.014;2023-02-18T04:45:31;100680.31;;;3.79;61.03
48424;BME280;34232;42.502;26.014;2023-02-18T04:47:56;100676.06;;;3.76;60.74
48424;BME280;34232;42.502;26.014;2023-02-18T04:50:24;100683.81;;;3.78;60.55
48424;BME280;34232;42.502;26.014;2023-02-18T04:52:50;100675.28;;;3.74;61.22
48424;BME280;34232;42.502;26.014;2023-02-18T04:55:15;100670.09;;;3.74;61.79
48424;BME280;34232;42.502;26.014;2023-02-18T04:57:40;100655.31;;;3.75;62.22
48424;BME280;34232;42.502;26.014;2023-02-18T05:00:06;100667.72;;;3.49;63.45
48424;BME280;34232;42.502;26.014;2023-02-18T05:02:32;100672.78;;;3.73;63.51
48424;BME280;34232;42.502;26.014;2023-02-18T05:04:57;100679.00;;;3.89;63.03
48424;BME280;34232;42.502;26.014;2023-02-18T05:07:23;100678.56;;;3.98;62.82
48424;BME280;34232;42.502;26.014;2023-02-18T05:09:48;100680.00;;;4.05;62.74
48424;BME280;34232;42.502;26.014;2023-02-18T05:12:13;100677.75;;;4.16;62.33
48424;BME280;34232;42.502;26.014;2023-02-18T05:14:38;100682.94;;;4.16;61.87
48424;BME280;34232;42.502;26.014;2023-02-18T05:17:04;100682.81;;;4.19;61.35
48424;BME280;34232;42.502;26.014;2023-02-18T05:19:29;100679.28;;;4.20;60.11
48424;BME280;34232;42.502;26.014;2023-02-18T05:21:54;100695.06;;;4.17;59.60
48424;BME280;34232;42.502;26.014;2023-02-18T05:24:19;100688.09;;;4.18;59.32
48424;BME280;34232;42.502;26.014;2023-02-18T05:26:45;100680.16;;;4.21;59.35
48424;BME280;34232;42.502;26.014;2023-02-18T05:29:10;100676.03;;;4.15;59.87
48424;BME280;34232;42.502;26.014;2023-02-18T05:31:35;100692.31;;;4.20;60.08
48424;BME280;34232;42.502;26.014;2023-02-18T05:34:02;100687.13;;;4.20;60.45
48424;BME280;34232;42.502;26.014;2023-02-18T05:36:27;100698.59;;;4.16;60.76
48424;BME280;34232;42.502;26.014;2023-02-18T05:38:52;100693.06;;;4.22;61.06
48424;BME280;34232;42.502;26.014;2023-02-18T05:41:18;100698.16;;;4.26;61.54
48424;BME280;34232;42.502;26.014;2023-02-18T05:43:43;100703.09;;;4.32;61.40
48424;BME280;34232;42.502;26.014;2023-02-18T05:46:27;100695.19;;;4.33;61.79
48424;BME280;34232;42.502;26.014;2023-02-18T05:48:52;100703.50;;;4.41;61.89
48424;BME280;34232;42.502;26.014;2023-02-18T05:51:18;100700.53;;;4.49;62.01
48424;BME280;34232;42.502;26.014;2023-02-18T05:53:43;100704.34;;;4.42;62.16
48424;BME280;34232;42.502;26.014;2023-02-18T05:56:08;100692.81;;;4.29;63.16
48424;BME280;34232;42.502;26.014;2023-02-18T05:58:36;100681.97;;;4.38;63.81
48424;BME280;34232;42.502;26.014;2023-02-18T06:01:02;100688.22;;;4.34;67.59
48424;BME280;34232;42.502;26.014;2023-02-18T06:03:27;100696.72;;;4.56;68.24
48424;BME280;34232;42.502;26.014;2023-02-18T06:05:53;100701.38;;;4.68;68.53
48424;BME280;34232;42.502;26.014;2023-02-18T06:08:18;100697.25;;;4.81;68.38
48424;BME280;34232;42.502;26.014;2023-02-18T06:10:46;100696.94;;;4.87;67.79
48424;BME280;34232;42.502;26.014;2023-02-18T06:13:11;100699.38;;;4.73;68.13
48424;BME280;34232;42.502;26.014;2023-02-18T06:15:37;100699.81;;;4.64;68.23
48424;BME280;34232;42.502;26.014;2023-02-18T06:18:03;100692.41;;;4.55;68.29
48424;BME280;34232;42.502;26.014;2023-02-18T06:20:28;100700.75;;;4.63;68.27
48424;BME280;34232;42.502;26.014;2023-02-18T06:22:54;100702.63;;;4.78;67.91
48424;BME280;34232;42.502;26.014;2023-02-18T06:25:19;100697.25;;;4.81;67.92
48424;BME280;34232;42.502;26.014;2023-02-18T06:27:44;100693.75;;;5.00;67.38
48424;BME280;34232;42.502;26.014;2023-02-18T06:30:09;100691.22;;;5.15;66.86
48424;BME280;34232;42.502;26.014;2023-02-18T06:32:35;100681.63;;;5.33;65.91
48424;BME280;34232;42.502;26.014;2023-02-18T06:35:00;100685.22;;;5.48;64.90
48424;BME280;34232;42.502;26.014;2023-02-18T06:37:25;100684.22;;;5.68;63.99
48424;BME280;34232;42.502;26.014;2023-02-18T06:39:50;100690.78;;;5.75;64.04
48424;BME280;34232;42.502;26.014;2023-02-18T06:42:16;100688.63;;;5.83;63.46
48424;BME280;34232;42.502;26.014;2023-02-18T06:44:41;100681.69;;;5.99;62.45
48424;BME280;34232;42.502;26.014;2023-02-18T06:47:06;100673.59;;;6.04;62.26
48424;BME280;34232;42.502;26.014;2023-02-18T06:49:32;100664.44;;;6.12;61.68
48424;BME280;34232;42.502;26.014;2023-02-18T06:51:57;100666.53;;;6.21;61.51
48424;BME280;34232;42.502;26.014;2023-02-18T06:54:22;100665.44;;;6.25;60.64
48424;BME280;34232;42.502;26.014;2023-02-18T06:56:49;100666.81;;;6.32;60.60
48424;BME280;34232;42.502;26.014;2023-02-18T06:59:14;100663.44;;;6.30;60.12
48424;BME280;34232;42.502;26.014;2023-02-18T07:01:40;100658.53;;;6.24;59.72
48424;BME280;34232;42.502;26.014;2023-02-18T07:04:05;100675.91;;;6.25;59.78
48424;BME280;34232;42.502;26.014;2023-02-18T07:06:30;100665.28;;;6.28;59.29
48424;BME280;34232;42.502;26.014;2023-02-18T07:08:56;100676.75;;;6.42;58.34
48424;BME280;34232;42.502;26.014;2023-02-18T07:11:21;100681.91;;;6.43;57.21
48424;BME280;34232;42.502;26.014;2023-02-18T07:13:46;100688.38;;;6.52;56.97
48424;BME280;34232;42.502;26.014;2023-02-18T07:16:11;100671.69;;;6.39;57.48
48424;BME280;34232;42.502;26.014;2023-02-18T07:18:37;100662.59;;;6.46;56.79
48424;BME280;34232;42.502;26.014;2023-02-18T07:21:05;100665.84;;;6.02;57.19
48424;BME280;34232;42.502;26.014;2023-02-18T07:23:30;100653.31;;;6.24;57.73
48424;BME280;34232;42.502;26.014;2023-02-18T07:28:47;100650.59;;;6.42;56.67
48424;BME280;34232;42.502;26.014;2023-02-18T07:31:12;100647.88;;;6.59;56.26
48424;BME280;34232;42.502;26.014;2023-02-18T07:33:37;100645.19;;;6.45;55.59
48424;BME280;34232;42.502;26.014;2023-02-18T07:36:03;100647.72;;;6.62;55.77
48424;BME280;34232;42.502;26.014;2023-02-18T07:38:28;100641.25;;;6.83;54.93
48424;BME280;34232;42.502;26.014;2023-02-18T07:40:55;100637.69;;;6.84;53.61
48424;BME280;34232;42.502;26.014;2023-02-18T07:43:21;100648.78;;;7.03;53.38
48424;BME280;34232;42.502;26.014;2023-02-18T07:45:46;100645.44;;;7.16;53.15
48424;BME280;34232;42.502;26.014;2023-02-18T07:48:12;100637.25;;;7.22;52.68
48424;BME280;34232;42.502;26.014;2023-02-18T07:50:38;100646.47;;;7.43;51.72
48424;BME280;34232;42.502;26.014;2023-02-18T07:53:04;100631.09;;;7.65;50.90
48424;BME280;34232;42.502;26.014;2023-02-18T07:55:30;100637.56;;;7.74;50.54
48424;BME280;34232;42.502;26.014;2023-02-18T07:58:13;100628.69;;;7.77;49.92
48424;BME280;34232;42.502;26.014;2023-02-18T08:00:38;100624.19;;;7.93;49.25
48424;BME280;34232;42.502;26.014;2023-02-18T08:03:03;100621.53;;;8.07;49.39
48424;BME280;34232;42.502;26.014;2023-02-18T08:05:29;100633.13;;;8.17;48.43
48424;BME280;34232;42.502;26.014;2023-02-18T08:07:55;100637.81;;;8.26;48.30
48424;BME280;34232;42.502;26.014;2023-02-18T08:10:20;100633.19;;;8.30;49.04
48424;BME280;34232;42.502;26.014;2023-02-18T08:12:45;100643.97;;;8.39;48.17
48424;BME280;34232;42.502;26.014;2023-02-18T08:15:10;100624.03;;;8.37;48.59
48424;BME280;34232;42.502;26.014;2023-02-18T08:17:36;100628.66;;;8.46;48.54
48424;BME280;34232;42.502;26.014;2023-02-18T08:20:01;100612.53;;;8.52;48.16
48424;BME280;34232;42.502;26.014;2023-02-18T08:22:27;100618.25;;;8.59;48.35
48424;BME280;34232;42.502;26.014;2023-02-18T08:24:55;100601.97;;;8.66;47.48
48424;BME280;34232;42.502;26.014;2023-02-18T08:27:20;100594.53;;;8.60;48.27
48424;BME280;34232;42.502;26.014;2023-02-18T08:29:47;100609.81;;;8.54;48.60
48424;BME280;34232;42.502;26.014;2023-02-18T08:32:12;100597.25;;;8.59;48.95
48424;BME280;34232;42.502;26.014;2023-02-18T08:34:38;100603.75;;;8.66;49.04
48424;BME280;34232;42.502;26.014;2023-02-18T08:37:03;100608.44;;;8.75;48.03
48424;BME280;34232;42.502;26.014;2023-02-18T08:39:32;100602.88;;;8.53;48.18
48424;BME280;34232;42.502;26.014;2023-02-18T08:41:58;100595.28;;;8.35;48.53
48424;BME280;34232;42.502;26.014;2023-02-18T08:44:23;100589.22;;;8.48;48.61
48424;BME280;34232;42.502;26.014;2023-02-18T08:46:48;100588.22;;;8.63;48.17
48424;BME280;34232;42.502;26.014;2023-02-18T08:49:14;100589.69;;;8.67;48.14
48424;BME280;34232;42.502;26.014;2023-02-18T08:51:40;100580.59;;;8.46;48.15
48424;BME280;34232;42.502;26.014;2023-02-18T08:54:05;100586.38;;;8.24;49.05
48424;BME280;34232;42.502;26.014;2023-02-18T08:56:31;100583.91;;;8.08;49.80
48424;BME280;34232;42.502;26.014;2023-02-18T08:58:57;100581.47;;;8.05;49.58
48424;BME280;34232;42.502;26.014;2023-02-18T09:01:22;100586.16;;;8.00;49.57
48424;BME280;34232;42.502;26.014;2023-02-18T09:03:47;100589.09;;;8.22;49.35
48424;BME280;34232;42.502;26.014;2023-02-18T09:06:12;100588.19;;;8.50;48.36
48424;BME280;34232;42.502;26.014;2023-02-18T09:08:38;100582.63;;;8.55;48.92
48424;BME280;34232;42.502;26.014;2023-02-18T09:11:03;100577.53;;;8.66;48.59
48424;BME280;34232;42.502;26.014;2023-02-18T09:13:29;100579.69;;;8.99;47.74
48424;BME280;34232;42.502;26.014;2023-02-18T09:16:01;100582.66;;;9.32;47.76
48424;BME280;34232;42.502;26.014;2023-02-18T09:18:28;100584.09;;;9.49;47.10
48424;BME280;34232;42.502;26.014;2023-02-18T09:20:57;100580.63;;;9.74;46.10
48424;BME280;34232;42.502;26.014;2023-02-18T09:23:23;100565.31;;;9.92;45.96
48424;BME280;34232;42.502;26.014;2023-02-18T09:25:52;100546.84;;;9.80;46.01
48424;BME280;34232;42.502;26.014;2023-02-18T09:28:18;100546.22;;;9.77;46.05
48424;BME280;34232;42.502;26.014;2023-02-18T09:30:44;100549.94;;;9.98;45.75
48424;BME280;34232;42.502;26.014;2023-02-18T09:33:09;100555.66;;;10.16;46.10
48424;BME280;34232;42.502;26.014;2023-02-18T09:35:37;100548.81;;;10.26;45.32
48424;BME280;34232;42.502;26.014;2023-02-18T09:38:02;100548.50;;;10.42;45.02
48424;BME280;34232;42.502;26.014;2023-02-18T09:40:29;100538.31;;;10.61;44.41
48424;BME280;34232;42.502;26.014;2023-02-18T09:42:56;100539.31;;;10.71;44.08
48424;BME280;34232;42.502;26.014;2023-02-18T09:45:22;100536.09;;;10.79;44.13
48424;BME280;34232;42.502;26.014;2023-02-18T09:47:47;100538.50;;;10.82;44.58
48424;BME280;34232;42.502;26.014;2023-02-18T09:50:25;100529.56;;;10.61;44.41
48424;BME280;34232;42.502;26.014;2023-02-18T09:52:51;100526.50;;;10.67;44.93
48424;BME280;34232;42.502;26.014;2023-02-18T09:57:52;100522.97;;;11.12;44.23
48424;BME280;34232;42.502;26.014;2023-02-18T10:00:25;100518.56;;;11.24;43.97
48424;BME280;34232;42.502;26.014;2023-02-18T10:02:56;100517.72;;;11.35;43.63
48424;BME280;34232;42.502;26.014;2023-02-18T10:05:22;100500.59;;;11.18;44.17
48424;BME280;34232;42.502;26.014;2023-02-18T10:07:48;100508.97;;;11.23;44.26
48424;BME280;34232;42.502;26.014;2023-02-18T10:10:26;100512.44;;;11.57;43.97
48424;BME280;34232;42.502;26.014;2023-02-18T10:12:55;100505.97;;;11.83;43.32
48424;BME280;34232;42.502;26.014;2023-02-18T10:15:21;100498.50;;;12.00;42.90
48424;BME280;34232;42.502;26.014;2023-02-18T10:17:47;100498.16;;;12.25;42.46
48424;BME280;34232;42.502;26.014;2023-02-18T10:20:24;100501.66;;;12.46;42.53
48424;BME280;34232;42.502;26.014;2023-02-18T10:22:51;100494.06;;;12.53;41.95
48424;BME280;34232;42.502;26.014;2023-02-18T10:25:18;100490.25;;;12.67;41.61
48424;BME280;34232;42.502;26.014;2023-02-18T10:27:44;100480.16;;;12.72;41.98
48424;BME280;34232;42.502;26.014;2023-02-18T10:30:20;100481.06;;;12.82;41.56
48424;BME280;34232;42.502;26.014;2023-02-18T10:32:46;100480.59;;;12.98;41.67
48424;BME280;34232;42.502;26.014;2023-02-18T10:35:22;100467.84;;;12.82;41.77
48424;BME280;34232;42.502;26.014;2023-02-18T10:43:22;100453.16;;;13.19;42.08
48424;BME280;34232;42.502;26.014;2023-02-18T10:45:55;100454.72;;;13.31;41.17
48424;BME280;34232;42.502;26.014;2023-02-18T10:50:55;100450.34;;;13.51;41.05
48424;BME280;34232;42.502;26.014;2023-02-18T10:53:30;100451.09;;;13.63;40.54
48424;BME280;34232;42.502;26.014;2023-02-18T10:55:57;100446.38;;;13.76;40.59
48424;BME280;34232;42.502;26.014;2023-02-18T11:00:58;100438.28;;;13.87;40.08
48424;BME280;34232;42.502;26.014;2023-02-18T11:03:26;100435.81;;;13.95;39.86
48424;BME280;34232;42.502;26.014;2023-02-18T11:06:02;100428.56;;;14.07;39.77
48424;BME280;34232;42.502;26.014;2023-02-18T11:08:28;100430.22;;;14.18;40.13
48424;BME280;34232;42.502;26.014;2023-02-18T11:11:05;100425.06;;;14.26;40.59
48424;BME280;34232;42.502;26.014;2023-02-18T11:13:35;100421.56;;;14.35;39.92
48424;BME280;34232;42.502;26.014;2023-02-18T11:16:01;100418.50;;;14.49;39.80
48424;BME280;34232;42.502;26.014;2023-02-18T11:20:55;100410.09;;;14.63;39.21
48424;BME280;34232;42.502;26.014;2023-02-18T11:23:20;100400.88;;;14.77;38.80
48424;BME280;34232;42.502;26.014;2023-02-18T11:25:56;100396.59;;;14.94;39.61
48424;BME280;34232;42.502;26.014;2023-02-18T11:28:27;100385.22;;;15.11;38.59
48424;BME280;34232;42.502;26.014;2023-02-18T11:30:58;100374.06;;;15.35;38.20
48424;BME280;34232;42.502;26.014;2023-02-18T11:35:54;100377.84;;;15.60;38.19
48424;BME280;34232;42.502;26.014;2023-02-18T11:38:36;100376.66;;;15.72;37.55
48424;BME280;34232;42.502;26.014;2023-02-18T11:41:08;100369.69;;;15.71;36.86
48424;BME280;34232;42.502;26.014;2023-02-18T11:43:33;100358.22;;;15.70;37.27
48424;BME280;34232;42.502;26.014;2023-02-18T11:48:36;100353.44;;;15.74;37.30
48424;BME280;34232;42.502;26.014;2023-02-18T11:51:02;100347.81;;;15.77;37.32
48424;BME280;34232;42.502;26.014;2023-02-18T11:53:33;100337.97;;;15.87;37.08
48424;BME280;34232;42.502;26.014;2023-02-18T11:55:59;100332.84;;;15.94;37.89
48424;BME280;34232;42.502;26.014;2023-02-18T11:58:25;100330.72;;;15.97;37.28
48424;BME280;34232;42.502;26.014;2023-02-18T12:00:53;100327.47;;;16.03;37.17
48424;BME280;34232;42.502;26.014;2023-02-18T12:05:45;100319.66;;;16.02;37.78
48424;BME280;34232;42.502;26.014;2023-02-18T12:08:23;100314.53;;;16.08;37.57
48424;BME280;34232;42.502;26.014;2023-02-18T12:10:52;100305.81;;;15.90;37.61
48424;BME280;34232;42.502;26.014;2023-02-18T12:13:26;100308.50;;;15.98;37.64
48424;BME280;34232;42.502;26.014;2023-02-18T12:21:13;100299.25;;;16.02;38.52
48424;BME280;34232;42.502;26.014;2023-02-18T12:26:21;100280.38;;;16.14;38.47
48424;BME280;34232;42.502;26.014;2023-02-18T12:29:11;100289.72;;;16.18;38.93
48424;BME280;34232;42.502;26.014;2023-02-18T12:34:18;100289.88;;;16.16;39.18
48424;BME280;34232;42.502;26.014;2023-02-18T12:39:28;100278.28;;;16.25;39.61
48424;BME280;34232;42.502;26.014;2023-02-18T13:07:41;100262.16;;;16.87;38.08
48424;BME280;34232;42.502;26.014;2023-02-18T13:15:22;100262.22;;;17.11;38.40
48424;BME280;34232;42.502;26.014;2023-02-18T13:17:49;100252.91;;;17.23;37.79
48424;BME280;34232;42.502;26.014;2023-02-18T13:23:20;100245.31;;;17.44;37.84
48424;BME280;34232;42.502;26.014;2023-02-18T13:25:46;100228.31;;;17.54;37.38
48424;BME280;34232;42.502;26.014;2023-02-18T13:36:33;100238.50;;;17.74;37.04
48424;BME280;34232;42.502;26.014;2023-02-18T13:39:05;100234.34;;;17.80;37.64
48424;BME280;34232;42.502;26.014;2023-02-18T13:41:36;100238.97;;;17.86;37.28
48424;BME280;34232;42.502;26.014;2023-02-18T13:44:06;100234.66;;;17.93;37.16
48424;BME280;34232;42.502;26.014;2023-02-18T13:46:34;100237.63;;;17.90;36.45
48424;BME280;34232;42.502;26.014;2023-02-18T13:49:11;100228.66;;;17.99;36.93
48424;BME280;34232;42.502;26.014;2023-02-18T13:54:13;100226.25;;;18.21;36.09
48424;BME280;34232;42.502;26.014;2023-02-18T13:56:43;100232.22;;;18.31;36.38
48424;BME280;34232;42.502;26.014;2023-02-18T14:01:50;100219.34;;;18.42;36.23
48424;BME280;34232;42.502;26.014;2023-02-18T14:09:52;100218.97;;;18.53;35.45
48424;BME280;34232;42.502;26.014;2023-02-18T14:15:06;100206.47;;;18.62;35.66
48424;BME280;34232;42.502;26.014;2023-02-18T14:17:47;100199.13;;;18.56;35.77
48424;BME280;34232;42.502;26.014;2023-02-18T14:22:48;100203.63;;;18.64;35.52
48424;BME280;34232;42.502;26.014;2023-02-18T14:27:39;100217.91;;;18.71;34.88
48424;BME280;34232;42.502;26.014;2023-02-18T14:32:32;100205.03;;;18.82;34.71
48424;BME280;34232;42.502;26.014;2023-02-18T14:38:11;100215.63;;;18.91;34.40
48424;BME280;34232;42.502;26.014;2023-02-18T14:50:47;100204.31;;;18.88;34.25
48424;BME280;34232;42.502;26.014;2023-02-18T14:53:14;100206.31;;;18.86;34.04
48424;BME280;34232;42.502;26.014;2023-02-18T14:55:45;100199.69;;;18.82;33.96
48424;BME280;34232;42.502;26.014;2023-02-18T14:58:24;100210.66;;;18.87;34.21
48424;BME280;34232;42.502;26.014;2023-02-18T15:00:52;100210.38;;;18.82;34.02
48424;BME280;34232;42.502;26.014;2023-02-18T15:03:17;100209.03;;;18.78;34.25
48424;BME280;34232;42.502;26.014;2023-02-18T15:05:44;100202.38;;;18.74;34.38
48424;BME280;34232;42.502;26.014;2023-02-18T15:08:22;100218.56;;;18.73;34.80
48424;BME280;34232;42.502;26.014;2023-02-18T15:13:16;100207.41;;;18.69;34.98
48424;BME280;34232;42.502;26.014;2023-02-18T15:15:42;100209.94;;;18.54;35.30
48424;BME280;34232;42.502;26.014;2023-02-18T15:18:15;100208.91;;;18.33;35.47
48424;BME280;34232;42.502;26.014;2023-02-18T15:20:43;100218.72;;;18.32;35.41
48424;BME280;34232;42.502;26.014;2023-02-18T15:23:10;100221.72;;;18.29;35.27
48424;BME280;34232;42.502;26.014;2023-02-18T15:25:38;100211.44;;;18.18;35.05
48424;BME280;34232;42.502;26.014;2023-02-18T15:28:03;100216.28;;;18.14;35.07
48424;BME280;34232;42.502;26.014;2023-02-18T15:30:29;100216.13;;;18.08;35.16
48424;BME280;34232;42.502;26.014;2023-02-18T15:32:55;100218.66;;;17.93;35.42
48424;BME280;34232;42.502;26.014;2023-02-18T15:35:22;100220.00;;;17.89;35.29
48424;BME280;34232;42.502;26.014;2023-02-18T15:37:53;100221.69;;;17.82;35.33
48424;BME280;34232;42.502;26.014;2023-02-18T15:40:19;100221.84;;;17.72;35.62